sensor_id;sensor_type;location;lat;lon;timestamp;P1;durP1;ratioP1;P2;durP2;ratioP2
12177;SDS011;6152;48.728;9.256;2023-10-09T00:00:05;11.90;;;5.40;;
12177;SDS011;6152;48.728;9.256;2023-10-09T00:02:50;10.80;;;5.22;;
12177;SDS011;6152;48.728;9.256;2023-10-09T00:05:16;10.18;;;4.97;;
12177;SDS011;6152;48.728;9.256;2023-10-09T00:07:57;13.02;;;5.50;;
12177;SDS011;6152;48.728;9.256;2023-10-09T00:10:23;7.32;;;4.50;;
12177;SDS011;6152;48.728;9.256;2023-10-09T00:13:00;7.35;;;5.43;;
12177;SDS011;6152;48.728;9.256;2023-10-09T00:15:27;10.98;;;4.97;;
12177;SDS011;6152;48.728;9.256;2023-10-09T00:17:58;10.75;;;5.25;;
12177;SDS011;6152;48.728;9.256;2023-10-09T00:20:24;8.60;;;5.50;;
12177;SDS011;6152;48.728;9.256;2023-10-09T00:23:02;9.75;;;4.93;;
12177;SDS011;6152;48.728;9.256;2023-10-09T00:25:33;7.35;;;5.00;;
12177;SDS011;6152;48.728;9.256;2023-10-09T00:28:01;11.15;;;5.28;;
12177;SDS011;6152;48.728;9.256;2023-10-09T00:30:28;8.10;;;5.43;;
12177;SDS011;6152;48.728;9.256;2023-10-09T00:32:55;11.65;;;5.65;;
12177;SDS011;6152;48.728;9.256;2023-10-09T00:35:28;10.07;;;4.80;;
12177;SDS011;6152;48.728;9.256;2023-10-09T00:38:01;10.27;;;5.40;;
12177;SDS011;6152;48.728;9.256;2023-10-09T00:40:39;7.40;;;5.47;;
12177;SDS011;6152;48.728;9.256;2023-10-09T00:43:12;10.88;;;5.68;;
12177;SDS011;6152;48.728;9.256;2023-10-09T00:45:39;8.68;;;5.13;;
12177;SDS011;6152;48.728;9.256;2023-10-09T00:48:09;14.68;;;5.30;;
12177;SDS011;6152;48.728;9.256;2023-10-09T00:50:39;13.38;;;5.53;;
12177;SDS011;6152;48.728;9.256;2023-10-09T00:53:12;7.57;;;4.97;;
12177;SDS011;6152;48.728;9.256;2023-10-09T00:55:43;9.13;;;5.20;;
12177;SDS011;6152;48.728;9.256;2023-10-09T00:58:16;9.32;;;4.82;;
12177;SDS011;6152;48.728;9.256;2023-10-09T01:00:48;7.75;;;4.55;;
12177;SDS011;6152;48.728;9.256;2023-10-09T01:03:17;9.02;;;4.55;;
12177;SDS011;6152;48.728;9.256;2023-10-09T01:08:22;13.65;;;4.65;;
12177;SDS011;6152;48.728;9.256;2023-10-09T01:13:47;10.68;;;5.20;;
12177;SDS011;6152;48.728;9.256;2023-10-09T01:16:17;10.95;;;5.00;;
12177;SDS011;6152;48.728;9.256;2023-10-09T01:18:47;12.45;;;4.53;;
12177;SDS011;6152;48.728;9.256;2023-10-09T01:21:18;9.57;;;5.00;;
12177;SDS011;6152;48.728;9.256;2023-10-09T01:23:52;8.77;;;4.55;;
12177;SDS011;6152;48.728;9.256;2023-10-09T01:26:28;9.00;;;4.85;;
12177;SDS011;6152;48.728;9.256;2023-10-09T01:28:58;11.90;;;5.03;;
12177;SDS011;6152;48.728;9.256;2023-10-09T01:31:25;8.48;;;4.65;;
12177;SDS011;6152;48.728;9.256;2023-10-09T01:33:52;12.13;;;4.65;;
12177;SDS011;6152;48.728;9.256;2023-10-09T01:36:24;10.25;;;4.60;;
12177;SDS011;6152;48.728;9.256;2023-10-09T01:38:59;7.45;;;4.28;;
12177;SDS011;6152;48.728;9.256;2023-10-09T01:41:47;9.63;;;4.78;;
12177;SDS011;6152;48.728;9.256;2023-10-09T01:44:14;10.88;;;5.03;;
12177;SDS011;6152;48.728;9.256;2023-10-09T01:46:41;11.18;;;5.40;;
12177;SDS011;6152;48.728;9.256;2023-10-09T01:49:11;9.73;;;5.05;;
12177;SDS011;6152;48.728;9.256;2023-10-09T01:51:46;8.45;;;4.75;;
12177;SDS011;6152;48.728;9.256;2023-10-09T01:54:14;9.55;;;4.97;;
12177;SDS011;6152;48.728;9.256;2023-10-09T01:56:58;9.65;;;4.32;;
12177;SDS011;6152;48.728;9.256;2023-10-09T01:59:30;10.85;;;4.78;;
12177;SDS011;6152;48.728;9.256;2023-10-09T02:01:58;11.38;;;4.90;;
12177;SDS011;6152;48.728;9.256;2023-10-09T02:04:25;13.13;;;4.78;;
12177;SDS011;6152;48.728;9.256;2023-10-09T02:06:51;9.73;;;4.50;;
12177;SDS011;6152;48.728;9.256;2023-10-09T02:09:18;15.48;;;4.45;;
12177;SDS011;6152;48.728;9.256;2023-10-09T02:11:47;10.85;;;4.65;;
12177;SDS011;6152;48.728;9.256;2023-10-09T02:14:16;10.00;;;4.70;;
12177;SDS011;6152;48.728;9.256;2023-10-09T02:16:48;10.77;;;4.80;;
12177;SDS011;6152;48.728;9.256;2023-10-09T02:19:43;11.25;;;4.47;;
12177;SDS011;6152;48.728;9.256;2023-10-09T02:22:13;10.85;;;5.10;;
12177;SDS011;6152;48.728;9.256;2023-10-09T02:24:44;9.32;;;5.00;;
12177;SDS011;6152;48.728;9.256;2023-10-09T02:27:14;8.02;;;4.47;;
12177;SDS011;6152;48.728;9.256;2023-10-09T02:29:59;7.60;;;4.53;;
12177;SDS011;6152;48.728;9.256;2023-10-09T02:32:34;10.27;;;5.40;;
12177;SDS011;6152;48.728;9.256;2023-10-09T02:35:01;8.38;;;4.68;;
12177;SDS011;6152;48.728;9.256;2023-10-09T02:37:35;11.35;;;5.00;;
12177;SDS011;6152;48.728;9.256;2023-10-09T02:40:03;7.18;;;5.00;;
12177;SDS011;6152;48.728;9.256;2023-10-09T02:42:34;11.88;;;5.18;;
12177;SDS011;6152;48.728;9.256;2023-10-09T02:45:00;11.45;;;5.68;;
12177;SDS011;6152;48.728;9.256;2023-10-09T02:47:29;10.63;;;5.05;;
12177;SDS011;6152;48.728;9.256;2023-10-09T02:49:56;10.93;;;5.07;;
12177;SDS011;6152;48.728;9.256;2023-10-09T02:52:31;12.25;;;5.70;;
12177;SDS011;6152;48.728;9.256;2023-10-09T02:55:05;11.38;;;5.22;;
12177;SDS011;6152;48.728;9.256;2023-10-09T02:57:47;9.30;;;4.78;;
12177;SDS011;6152;48.728;9.256;2023-10-09T03:00:17;9.55;;;5.18;;
12177;SDS011;6152;48.728;9.256;2023-10-09T03:02:54;9.80;;;4.72;;
12177;SDS011;6152;48.728;9.256;2023-10-09T03:05:23;11.77;;;5.15;;
12177;SDS011;6152;48.728;9.256;2023-10-09T03:07:50;13.52;;;5.07;;
12177;SDS011;6152;48.728;9.256;2023-10-09T03:10:18;10.18;;;5.10;;
12177;SDS011;6152;48.728;9.256;2023-10-09T03:12:45;9.70;;;5.35;;
12177;SDS011;6152;48.728;9.256;2023-10-09T03:15:17;10.90;;;4.38;;
12177;SDS011;6152;48.728;9.256;2023-10-09T03:17:45;10.55;;;4.68;;
12177;SDS011;6152;48.728;9.256;2023-10-09T03:20:12;9.95;;;4.57;;
12177;SDS011;6152;48.728;9.256;2023-10-09T03:22:40;6.93;;;4.95;;
12177;SDS011;6152;48.728;9.256;2023-10-09T03:25:07;8.88;;;4.75;;
12177;SDS011;6152;48.728;9.256;2023-10-09T03:27:39;11.20;;;5.07;;
12177;SDS011;6152;48.728;9.256;2023-10-09T03:30:17;14.27;;;5.90;;
12177;SDS011;6152;48.728;9.256;2023-10-09T03:32:50;15.00;;;5.47;;
12177;SDS011;6152;48.728;9.256;2023-10-09T03:35:20;10.65;;;5.20;;
12177;SDS011;6152;48.728;9.256;2023-10-09T03:37:51;13.18;;;5.70;;
12177;SDS011;6152;48.728;9.256;2023-10-09T03:40:37;12.75;;;6.28;;
12177;SDS011;6152;48.728;9.256;2023-10-09T03:43:07;13.95;;;6.43;;
12177;SDS011;6152;48.728;9.256;2023-10-09T03:45:36;13.10;;;5.88;;
12177;SDS011;6152;48.728;9.256;2023-10-09T03:48:04;13.70;;;7.15;;
12177;SDS011;6152;48.728;9.256;2023-10-09T03:50:48;15.50;;;7.90;;
12177;SDS011;6152;48.728;9.256;2023-10-09T03:53:26;17.77;;;7.82;;
12177;SDS011;6152;48.728;9.256;2023-10-09T03:55:55;12.68;;;6.78;;
12177;SDS011;6152;48.728;9.256;2023-10-09T03:58:21;14.65;;;7.45;;
12177;SDS011;6152;48.728;9.256;2023-10-09T04:00:47;16.42;;;8.02;;
12177;SDS011;6152;48.728;9.256;2023-10-09T04:03:14;12.73;;;7.80;;
12177;SDS011;6152;48.728;9.256;2023-10-09T04:05:41;13.60;;;8.18;;
12177;SDS011;6152;48.728;9.256;2023-10-09T04:08:09;15.07;;;7.95;;
12177;SDS011;6152;48.728;9.256;2023-10-09T04:10:41;16.27;;;7.93;;
12177;SDS011;6152;48.728;9.256;2023-10-09T04:13:19;12.55;;;8.48;;
12177;SDS011;6152;48.728;9.256;2023-10-09T04:15:51;17.77;;;8.30;;
12177;SDS011;6152;48.728;9.256;2023-10-09T04:18:19;14.75;;;8.20;;
12177;SDS011;6152;48.728;9.256;2023-10-09T04:20:45;14.43;;;8.50;;
12177;SDS011;6152;48.728;9.256;2023-10-09T04:23:47;13.35;;;8.90;;
12177;SDS011;6152;48.728;9.256;2023-10-09T04:26:34;19.27;;;9.07;;
12177;SDS011;6152;48.728;9.256;2023-10-09T04:29:02;12.65;;;8.35;;
12177;SDS011;6152;48.728;9.256;2023-10-09T04:31:28;18.77;;;8.40;;
12177;SDS011;6152;48.728;9.256;2023-10-09T04:34:03;14.70;;;7.70;;
12177;SDS011;6152;48.728;9.256;2023-10-09T04:36:48;13.63;;;7.18;;
12177;SDS011;6152;48.728;9.256;2023-10-09T04:39:16;13.13;;;7.75;;
12177;SDS011;6152;48.728;9.256;2023-10-09T04:41:55;15.80;;;7.88;;
12177;SDS011;6152;48.728;9.256;2023-10-09T04:44:44;13.25;;;6.82;;
12177;SDS011;6152;48.728;9.256;2023-10-09T04:47:28;16.98;;;6.75;;
12177;SDS011;6152;48.728;9.256;2023-10-09T04:50:04;13.98;;;7.10;;
12177;SDS011;6152;48.728;9.256;2023-10-09T04:52:36;12.15;;;6.60;;
12177;SDS011;6152;48.728;9.256;2023-10-09T04:55:03;14.38;;;6.03;;
12177;SDS011;6152;48.728;9.256;2023-10-09T04:57:45;13.20;;;6.50;;
12177;SDS011;6152;48.728;9.256;2023-10-09T05:03:07;14.52;;;6.45;;
12177;SDS011;6152;48.728;9.256;2023-10-09T05:05:37;11.90;;;5.90;;
12177;SDS011;6152;48.728;9.256;2023-10-09T05:08:07;14.73;;;6.10;;
12177;SDS011;6152;48.728;9.256;2023-10-09T05:10:47;14.98;;;5.85;;
12177;SDS011;6152;48.728;9.256;2023-10-09T05:13:23;8.32;;;5.57;;
12177;SDS011;6152;48.728;9.256;2023-10-09T05:16:06;13.00;;;6.78;;
12177;SDS011;6152;48.728;9.256;2023-10-09T05:18:38;11.07;;;5.63;;
12177;SDS011;6152;48.728;9.256;2023-10-09T05:21:04;13.25;;;5.45;;
12177;SDS011;6152;48.728;9.256;2023-10-09T05:23:51;15.52;;;6.03;;
12177;SDS011;6152;48.728;9.256;2023-10-09T05:26:55;15.80;;;5.50;;
12177;SDS011;6152;48.728;9.256;2023-10-09T05:29:41;13.23;;;5.75;;
12177;SDS011;6152;48.728;9.256;2023-10-09T05:32:24;12.07;;;5.15;;
12177;SDS011;6152;48.728;9.256;2023-10-09T05:34:55;16.13;;;6.22;;
12177;SDS011;6152;48.728;9.256;2023-10-09T05:37:28;13.43;;;6.00;;
12177;SDS011;6152;48.728;9.256;2023-10-09T05:39:58;17.05;;;5.65;;
12177;SDS011;6152;48.728;9.256;2023-10-09T05:42:32;11.48;;;4.93;;
12177;SDS011;6152;48.728;9.256;2023-10-09T05:45:06;14.85;;;5.45;;
12177;SDS011;6152;48.728;9.256;2023-10-09T05:47:41;10.27;;;5.07;;
12177;SDS011;6152;48.728;9.256;2023-10-09T05:50:27;9.75;;;5.50;;
12177;SDS011;6152;48.728;9.256;2023-10-09T05:52:56;9.35;;;4.43;;
12177;SDS011;6152;48.728;9.256;2023-10-09T05:55:23;12.00;;;4.97;;
12177;SDS011;6152;48.728;9.256;2023-10-09T05:57:54;14.35;;;4.78;;
12177;SDS011;6152;48.728;9.256;2023-10-09T06:00:23;14.13;;;3.70;;
12177;SDS011;6152;48.728;9.256;2023-10-09T06:03:09;19.23;;;4.93;;
12177;SDS011;6152;48.728;9.256;2023-10-09T06:05:57;11.82;;;3.58;;
12177;SDS011;6152;48.728;9.256;2023-10-09T06:08:26;16.35;;;3.55;;
12177;SDS011;6152;48.728;9.256;2023-10-09T06:11:09;9.98;;;3.90;;
12177;SDS011;6152;48.728;9.256;2023-10-09T06:13:55;14.65;;;3.83;;
12177;SDS011;6152;48.728;9.256;2023-10-09T06:16:32;12.52;;;4.50;;
12177;SDS011;6152;48.728;9.256;2023-10-09T06:21:51;12.30;;;3.55;;
12177;SDS011;6152;48.728;9.256;2023-10-09T06:24:40;8.70;;;3.70;;
12177;SDS011;6152;48.728;9.256;2023-10-09T06:27:07;12.60;;;3.90;;
12177;SDS011;6152;48.728;9.256;2023-10-09T06:29:37;13.18;;;3.78;;
12177;SDS011;6152;48.728;9.256;2023-10-09T06:32:11;8.88;;;3.65;;
12177;SDS011;6152;48.728;9.256;2023-10-09T06:34:46;14.90;;;4.10;;
12177;SDS011;6152;48.728;9.256;2023-10-09T06:37:22;14.45;;;4.25;;
12177;SDS011;6152;48.728;9.256;2023-10-09T06:39:57;13.35;;;4.25;;
12177;SDS011;6152;48.728;9.256;2023-10-09T06:42:24;12.10;;;3.92;;
12177;SDS011;6152;48.728;9.256;2023-10-09T06:45:11;13.60;;;4.35;;
12177;SDS011;6152;48.728;9.256;2023-10-09T06:47:47;11.82;;;4.25;;
12177;SDS011;6152;48.728;9.256;2023-10-09T06:50:35;11.65;;;4.15;;
12177;SDS011;6152;48.728;9.256;2023-10-09T06:53:20;14.52;;;3.75;;
12177;SDS011;6152;48.728;9.256;2023-10-09T06:55:50;11.25;;;3.72;;
12177;SDS011;6152;48.728;9.256;2023-10-09T06:58:17;11.45;;;3.90;;
12177;SDS011;6152;48.728;9.256;2023-10-09T07:00:54;11.57;;;4.05;;
12177;SDS011;6152;48.728;9.256;2023-10-09T07:03:26;12.50;;;3.95;;
12177;SDS011;6152;48.728;9.256;2023-10-09T07:06:09;12.25;;;3.63;;
12177;SDS011;6152;48.728;9.256;2023-10-09T07:09:10;15.50;;;3.35;;
12177;SDS011;6152;48.728;9.256;2023-10-09T07:11:38;9.20;;;2.63;;
12177;SDS011;6152;48.728;9.256;2023-10-09T07:14:12;13.23;;;2.90;;
12177;SDS011;6152;48.728;9.256;2023-10-09T07:16:55;13.70;;;3.47;;
12177;SDS011;6152;48.728;9.256;2023-10-09T07:19:53;15.68;;;3.00;;
12177;SDS011;6152;48.728;9.256;2023-10-09T07:22:19;14.52;;;3.10;;
12177;SDS011;6152;48.728;9.256;2023-10-09T07:24:46;13.05;;;3.58;;
12177;SDS011;6152;48.728;9.256;2023-10-09T07:27:36;10.52;;;3.30;;
12177;SDS011;6152;48.728;9.256;2023-10-09T07:30:19;11.93;;;3.08;;
12177;SDS011;6152;48.728;9.256;2023-10-09T07:35:33;13.50;;;3.08;;
12177;SDS011;6152;48.728;9.256;2023-10-09T07:40:44;13.88;;;3.03;;
12177;SDS011;6152;48.728;9.256;2023-10-09T07:43:25;8.70;;;3.67;;
12177;SDS011;6152;48.728;9.256;2023-10-09T07:46:10;14.55;;;3.33;;
12177;SDS011;6152;48.728;9.256;2023-10-09T07:48:55;13.75;;;3.90;;
12177;SDS011;6152;48.728;9.256;2023-10-09T07:51:23;9.88;;;3.05;;
12177;SDS011;6152;48.728;9.256;2023-10-09T07:53:56;14.18;;;3.25;;
12177;SDS011;6152;48.728;9.256;2023-10-09T07:56:32;16.15;;;3.20;;
12177;SDS011;6152;48.728;9.256;2023-10-09T07:59:11;12.77;;;2.88;;
12177;SDS011;6152;48.728;9.256;2023-10-09T08:01:47;14.48;;;3.45;;
12177;SDS011;6152;48.728;9.256;2023-10-09T08:04:24;15.30;;;3.45;;
12177;SDS011;6152;48.728;9.256;2023-10-09T08:09:34;11.93;;;3.25;;
12177;SDS011;6152;48.728;9.256;2023-10-09T08:12:14;12.43;;;3.30;;
12177;SDS011;6152;48.728;9.256;2023-10-09T08:14:59;10.02;;;3.45;;
12177;SDS011;6152;48.728;9.256;2023-10-09T08:20:28;10.77;;;3.05;;
12177;SDS011;6152;48.728;9.256;2023-10-09T08:23:14;13.75;;;2.97;;
12177;SDS011;6152;48.728;9.256;2023-10-09T08:25:58;11.73;;;3.30;;
12177;SDS011;6152;48.728;9.256;2023-10-09T08:28:42;10.15;;;3.25;;
12177;SDS011;6152;48.728;9.256;2023-10-09T08:31:13;6.57;;;2.58;;
12177;SDS011;6152;48.728;9.256;2023-10-09T08:33:44;9.30;;;2.67;;
12177;SDS011;6152;48.728;9.256;2023-10-09T08:36:22;9.32;;;2.75;;
12177;SDS011;6152;48.728;9.256;2023-10-09T08:38:53;12.77;;;3.08;;
12177;SDS011;6152;48.728;9.256;2023-10-09T08:41:23;13.68;;;3.03;;
12177;SDS011;6152;48.728;9.256;2023-10-09T08:43:55;12.40;;;3.30;;
12177;SDS011;6152;48.728;9.256;2023-10-09T08:48:51;12.88;;;2.90;;
12177;SDS011;6152;48.728;9.256;2023-10-09T08:51:20;10.73;;;3.38;;
12177;SDS011;6152;48.728;9.256;2023-10-09T08:53:48;15.07;;;2.90;;
12177;SDS011;6152;48.728;9.256;2023-10-09T08:56:17;7.38;;;2.40;;
12177;SDS011;6152;48.728;9.256;2023-10-09T08:58:49;13.40;;;2.75;;
12177;SDS011;6152;48.728;9.256;2023-10-09T09:01:16;14.32;;;2.60;;
12177;SDS011;6152;48.728;9.256;2023-10-09T09:03:50;11.10;;;2.58;;
12177;SDS011;6152;48.728;9.256;2023-10-09T09:06:20;14.52;;;3.13;;
12177;SDS011;6152;48.728;9.256;2023-10-09T09:08:48;7.13;;;2.95;;
12177;SDS011;6152;48.728;9.256;2023-10-09T09:11:15;11.07;;;3.40;;
12177;SDS011;6152;48.728;9.256;2023-10-09T09:13:58;13.18;;;2.63;;
12177;SDS011;6152;48.728;9.256;2023-10-09T09:16:40;13.27;;;2.67;;
12177;SDS011;6152;48.728;9.256;2023-10-09T09:19:13;10.35;;;2.80;;
12177;SDS011;6152;48.728;9.256;2023-10-09T09:21:49;12.98;;;2.45;;
12177;SDS011;6152;48.728;9.256;2023-10-09T09:24:19;10.82;;;2.17;;
12177;SDS011;6152;48.728;9.256;2023-10-09T09:26:46;11.82;;;3.05;;
12177;SDS011;6152;48.728;9.256;2023-10-09T09:29:12;9.85;;;2.80;;
12177;SDS011;6152;48.728;9.256;2023-10-09T09:31:53;14.30;;;2.80;;
12177;SDS011;6152;48.728;9.256;2023-10-09T09:34:31;9.68;;;2.70;;
12177;SDS011;6152;48.728;9.256;2023-10-09T09:37:14;12.13;;;2.78;;
12177;SDS011;6152;48.728;9.256;2023-10-09T09:39:46;9.02;;;2.88;;
12177;SDS011;6152;48.728;9.256;2023-10-09T09:42:16;8.52;;;2.92;;
12177;SDS011;6152;48.728;9.256;2023-10-09T09:44:49;15.98;;;3.22;;
12177;SDS011;6152;48.728;9.256;2023-10-09T09:47:17;12.07;;;2.80;;
12177;SDS011;6152;48.728;9.256;2023-10-09T09:49:51;11.93;;;2.45;;
12177;SDS011;6152;48.728;9.256;2023-10-09T09:52:25;9.27;;;2.38;;
12177;SDS011;6152;48.728;9.256;2023-10-09T09:54:53;11.75;;;2.63;;
12177;SDS011;6152;48.728;9.256;2023-10-09T09:57:20;12.98;;;3.00;;
12177;SDS011;6152;48.728;9.256;2023-10-09T09:59:51;14.60;;;3.10;;
12177;SDS011;6152;48.728;9.256;2023-10-09T10:02:30;8.48;;;2.80;;
12177;SDS011;6152;48.728;9.256;2023-10-09T10:05:02;11.98;;;2.85;;
12177;SDS011;6152;48.728;9.256;2023-10-09T10:07:32;12.00;;;3.08;;
12177;SDS011;6152;48.728;9.256;2023-10-09T10:12:58;9.88;;;2.85;;
12177;SDS011;6152;48.728;9.256;2023-10-09T10:18:33;10.80;;;2.58;;
12177;SDS011;6152;48.728;9.256;2023-10-09T10:21:27;12.95;;;3.00;;
12177;SDS011;6152;48.728;9.256;2023-10-09T10:23:57;16.33;;;2.60;;
12177;SDS011;6152;48.728;9.256;2023-10-09T10:26:35;10.45;;;2.40;;
12177;SDS011;6152;48.728;9.256;2023-10-09T10:29:17;12.48;;;2.85;;
12177;SDS011;6152;48.728;9.256;2023-10-09T10:31:51;8.40;;;2.45;;
12177;SDS011;6152;48.728;9.256;2023-10-09T10:34:24;14.75;;;3.17;;
12177;SDS011;6152;48.728;9.256;2023-10-09T10:36:51;15.55;;;3.22;;
12177;SDS011;6152;48.728;9.256;2023-10-09T10:39:25;10.40;;;2.92;;
12177;SDS011;6152;48.728;9.256;2023-10-09T10:42:09;11.60;;;2.92;;
12177;SDS011;6152;48.728;9.256;2023-10-09T10:44:58;12.27;;;2.53;;
12177;SDS011;6152;48.728;9.256;2023-10-09T10:47:28;12.05;;;2.78;;
12177;SDS011;6152;48.728;9.256;2023-10-09T10:49:59;14.85;;;3.50;;
12177;SDS011;6152;48.728;9.256;2023-10-09T10:53:09;8.80;;;2.90;;
12177;SDS011;6152;48.728;9.256;2023-10-09T10:56:00;10.05;;;3.00;;
12177;SDS011;6152;48.728;9.256;2023-10-09T10:58:39;11.82;;;2.60;;
12177;SDS011;6152;48.728;9.256;2023-10-09T11:01:18;11.77;;;3.50;;
12177;SDS011;6152;48.728;9.256;2023-10-09T11:03:47;10.13;;;2.67;;
12177;SDS011;6152;48.728;9.256;2023-10-09T11:09:03;11.43;;;3.17;;
12177;SDS011;6152;48.728;9.256;2023-10-09T11:11:49;13.13;;;3.55;;
12177;SDS011;6152;48.728;9.256;2023-10-09T11:14:36;16.63;;;3.45;;
12177;SDS011;6152;48.728;9.256;2023-10-09T11:17:15;13.52;;;3.20;;
12177;SDS011;6152;48.728;9.256;2023-10-09T11:19:50;14.40;;;3.45;;
12177;SDS011;6152;48.728;9.256;2023-10-09T11:22:17;17.13;;;3.53;;
12177;SDS011;6152;48.728;9.256;2023-10-09T11:24:53;12.18;;;3.63;;
12177;SDS011;6152;48.728;9.256;2023-10-09T11:27:36;13.30;;;4.10;;
12177;SDS011;6152;48.728;9.256;2023-10-09T11:30:05;20.95;;;4.65;;
12177;SDS011;6152;48.728;9.256;2023-10-09T11:32:37;20.42;;;4.57;;
12177;SDS011;6152;48.728;9.256;2023-10-09T11:35:14;15.85;;;4.10;;
12177;SDS011;6152;48.728;9.256;2023-10-09T11:37:56;18.70;;;3.95;;
12177;SDS011;6152;48.728;9.256;2023-10-09T11:40:29;15.45;;;3.70;;
12177;SDS011;6152;48.728;9.256;2023-10-09T11:43:20;16.70;;;3.25;;
12177;SDS011;6152;48.728;9.256;2023-10-09T11:46:08;16.02;;;3.78;;
12177;SDS011;6152;48.728;9.256;2023-10-09T11:48:38;15.15;;;3.70;;
12177;SDS011;6152;48.728;9.256;2023-10-09T11:51:33;15.55;;;3.55;;
12177;SDS011;6152;48.728;9.256;2023-10-09T11:54:03;17.90;;;3.85;;
12177;SDS011;6152;48.728;9.256;2023-10-09T11:56:33;15.85;;;3.08;;
12177;SDS011;6152;48.728;9.256;2023-10-09T11:58:59;19.35;;;3.88;;
12177;SDS011;6152;48.728;9.256;2023-10-09T12:01:29;12.30;;;3.53;;
12177;SDS011;6152;48.728;9.256;2023-10-09T12:04:00;12.00;;;2.88;;
12177;SDS011;6152;48.728;9.256;2023-10-09T12:06:26;16.67;;;3.95;;
12177;SDS011;6152;48.728;9.256;2023-10-09T12:08:57;15.68;;;3.55;;
12177;SDS011;6152;48.728;9.256;2023-10-09T12:11:23;15.98;;;4.00;;
12177;SDS011;6152;48.728;9.256;2023-10-09T12:13:56;17.90;;;4.07;;
12177;SDS011;6152;48.728;9.256;2023-10-09T12:16:23;15.25;;;3.42;;
12177;SDS011;6152;48.728;9.256;2023-10-09T12:18:58;12.50;;;2.90;;
12177;SDS011;6152;48.728;9.256;2023-10-09T12:21:24;20.67;;;3.50;;
12177;SDS011;6152;48.728;9.256;2023-10-09T12:23:53;13.02;;;2.92;;
12177;SDS011;6152;48.728;9.256;2023-10-09T12:26:22;9.75;;;2.88;;
12177;SDS011;6152;48.728;9.256;2023-10-09T12:28:49;14.40;;;3.58;;
12177;SDS011;6152;48.728;9.256;2023-10-09T12:31:16;18.13;;;3.63;;
12177;SDS011;6152;48.728;9.256;2023-10-09T12:33:46;16.38;;;3.53;;
12177;SDS011;6152;48.728;9.256;2023-10-09T12:36:16;17.50;;;3.25;;
12177;SDS011;6152;48.728;9.256;2023-10-09T12:38:46;17.58;;;2.97;;
12177;SDS011;6152;48.728;9.256;2023-10-09T12:41:17;16.17;;;3.58;;
12177;SDS011;6152;48.728;9.256;2023-10-09T12:44:04;15.88;;;3.10;;
12177;SDS011;6152;48.728;9.256;2023-10-09T12:46:36;10.75;;;2.97;;
12177;SDS011;6152;48.728;9.256;2023-10-09T12:49:02;14.95;;;3.30;;
12177;SDS011;6152;48.728;9.256;2023-10-09T12:51:28;21.58;;;3.38;;
12177;SDS011;6152;48.728;9.256;2023-10-09T12:53:55;16.67;;;3.83;;
12177;SDS011;6152;48.728;9.256;2023-10-09T12:56:26;16.02;;;3.17;;
12177;SDS011;6152;48.728;9.256;2023-10-09T12:59:00;20.63;;;3.40;;
12177;SDS011;6152;48.728;9.256;2023-10-09T13:01:29;18.67;;;3.63;;
12177;SDS011;6152;48.728;9.256;2023-10-09T13:04:07;16.38;;;4.40;;
12177;SDS011;6152;48.728;9.256;2023-10-09T13:06:36;13.43;;;3.30;;
12177;SDS011;6152;48.728;9.256;2023-10-09T13:09:09;12.57;;;3.08;;
12177;SDS011;6152;48.728;9.256;2023-10-09T13:11:39;13.18;;;3.90;;
12177;SDS011;6152;48.728;9.256;2023-10-09T13:14:06;12.48;;;3.50;;
12177;SDS011;6152;48.728;9.256;2023-10-09T13:16:48;11.68;;;2.88;;
12177;SDS011;6152;48.728;9.256;2023-10-09T13:19:18;11.57;;;3.60;;
12177;SDS011;6152;48.728;9.256;2023-10-09T13:21:44;16.73;;;3.35;;
12177;SDS011;6152;48.728;9.256;2023-10-09T13:24:11;16.10;;;4.18;;
12177;SDS011;6152;48.728;9.256;2023-10-09T13:26:49;14.88;;;3.50;;
12177;SDS011;6152;48.728;9.256;2023-10-09T13:29:23;11.40;;;3.22;;
12177;SDS011;6152;48.728;9.256;2023-10-09T13:31:49;12.60;;;2.92;;
12177;SDS011;6152;48.728;9.256;2023-10-09T13:34:17;14.70;;;3.47;;
12177;SDS011;6152;48.728;9.256;2023-10-09T13:36:44;10.85;;;3.25;;
12177;SDS011;6152;48.728;9.256;2023-10-09T13:39:18;13.25;;;3.85;;
12177;SDS011;6152;48.728;9.256;2023-10-09T13:41:50;14.07;;;3.33;;
12177;SDS011;6152;48.728;9.256;2023-10-09T13:44:27;8.80;;;2.95;;
12177;SDS011;6152;48.728;9.256;2023-10-09T13:46:54;11.07;;;3.55;;
12177;SDS011;6152;48.728;9.256;2023-10-09T13:49:23;15.40;;;3.50;;
12177;SDS011;6152;48.728;9.256;2023-10-09T13:51:59;15.98;;;4.10;;
12177;SDS011;6152;48.728;9.256;2023-10-09T13:54:27;9.77;;;3.47;;
12177;SDS011;6152;48.728;9.256;2023-10-09T13:57:00;13.18;;;3.60;;
12177;SDS011;6152;48.728;9.256;2023-10-09T13:59:29;6.95;;;4.03;;
12177;SDS011;6152;48.728;9.256;2023-10-09T14:01:56;10.25;;;3.85;;
12177;SDS011;6152;48.728;9.256;2023-10-09T14:04:24;7.90;;;3.78;;
12177;SDS011;6152;48.728;9.256;2023-10-09T14:06:53;9.32;;;3.47;;
12177;SDS011;6152;48.728;9.256;2023-10-09T14:09:23;8.40;;;3.80;;
12177;SDS011;6152;48.728;9.256;2023-10-09T14:12:10;12.82;;;3.80;;
12177;SDS011;6152;48.728;9.256;2023-10-09T14:14:39;9.38;;;3.28;;
12177;SDS011;6152;48.728;9.256;2023-10-09T14:17:13;11.80;;;3.53;;
12177;SDS011;6152;48.728;9.256;2023-10-09T14:19:48;7.93;;;3.10;;
12177;SDS011;6152;48.728;9.256;2023-10-09T14:22:16;10.63;;;3.33;;
12177;SDS011;6152;48.728;9.256;2023-10-09T14:24:44;8.32;;;3.25;;
12177;SDS011;6152;48.728;9.256;2023-10-09T14:27:14;11.20;;;3.42;;
12177;SDS011;6152;48.728;9.256;2023-10-09T14:29:47;9.80;;;3.33;;
12177;SDS011;6152;48.728;9.256;2023-10-09T14:32:14;9.40;;;3.28;;
12177;SDS011;6152;48.728;9.256;2023-10-09T14:34:41;13.00;;;4.40;;
12177;SDS011;6152;48.728;9.256;2023-10-09T14:37:14;12.00;;;3.53;;
12177;SDS011;6152;48.728;9.256;2023-10-09T14:39:41;10.00;;;3.22;;
12177;SDS011;6152;48.728;9.256;2023-10-09T14:42:13;12.75;;;3.85;;
12177;SDS011;6152;48.728;9.256;2023-10-09T14:44:40;8.88;;;3.25;;
12177;SDS011;6152;48.728;9.256;2023-10-09T14:47:07;9.30;;;3.35;;
12177;SDS011;6152;48.728;9.256;2023-10-09T14:49:33;14.25;;;4.03;;
12177;SDS011;6152;48.728;9.256;2023-10-09T14:52:08;9.90;;;4.03;;
12177;SDS011;6152;48.728;9.256;2023-10-09T14:54:35;13.15;;;3.63;;
12177;SDS011;6152;48.728;9.256;2023-10-09T14:57:03;12.68;;;3.88;;
12177;SDS011;6152;48.728;9.256;2023-10-09T14:59:33;17.73;;;3.88;;
12177;SDS011;6152;48.728;9.256;2023-10-09T15:02:00;11.25;;;3.80;;
12177;SDS011;6152;48.728;9.256;2023-10-09T15:04:26;12.80;;;4.05;;
12177;SDS011;6152;48.728;9.256;2023-10-09T15:06:52;10.35;;;3.83;;
12177;SDS011;6152;48.728;9.256;2023-10-09T15:09:19;12.18;;;3.78;;
12177;SDS011;6152;48.728;9.256;2023-10-09T15:11:50;14.10;;;3.85;;
12177;SDS011;6152;48.728;9.256;2023-10-09T15:14:17;10.18;;;3.35;;
12177;SDS011;6152;48.728;9.256;2023-10-09T15:16:46;12.32;;;3.28;;
12177;SDS011;6152;48.728;9.256;2023-10-09T15:19:12;11.50;;;4.00;;
12177;SDS011;6152;48.728;9.256;2023-10-09T15:21:39;7.25;;;3.10;;
12177;SDS011;6152;48.728;9.256;2023-10-09T15:24:15;12.35;;;4.38;;
12177;SDS011;6152;48.728;9.256;2023-10-09T15:26:46;12.50;;;4.25;;
12177;SDS011;6152;48.728;9.256;2023-10-09T15:29:17;17.17;;;3.92;;
12177;SDS011;6152;48.728;9.256;2023-10-09T15:31:48;10.63;;;3.80;;
12177;SDS011;6152;48.728;9.256;2023-10-09T15:34:15;11.20;;;3.80;;
12177;SDS011;6152;48.728;9.256;2023-10-09T15:36:44;15.20;;;4.47;;
12177;SDS011;6152;48.728;9.256;2023-10-09T15:39:12;11.38;;;5.00;;
12177;SDS011;6152;48.728;9.256;2023-10-09T15:41:39;10.73;;;4.07;;
12177;SDS011;6152;48.728;9.256;2023-10-09T15:44:05;14.43;;;4.57;;
12177;SDS011;6152;48.728;9.256;2023-10-09T15:46:31;12.65;;;3.92;;
12177;SDS011;6152;48.728;9.256;2023-10-09T15:49:00;12.38;;;4.07;;
12177;SDS011;6152;48.728;9.256;2023-10-09T15:51:29;9.75;;;4.05;;
12177;SDS011;6152;48.728;9.256;2023-10-09T15:53:57;10.88;;;3.80;;
12177;SDS011;6152;48.728;9.256;2023-10-09T15:56:24;12.30;;;4.18;;
12177;SDS011;6152;48.728;9.256;2023-10-09T15:58:51;11.88;;;4.20;;